Skip Navigation Links Skip Navigation Links

Current Weather

Woensdrecht, Netherlands

For information only: do not use for flight planning or navigation.
Latest weather
Observation time Tuesday, October 19, 2021 10:55 AM CEST
Local time Tuesday, October 19, 2021 11:03 AM CEST
Flight conditions Low Instrument Meteorological Conditions
Winds
Wind direction South-Southwest (210°)
Winds variable from 160° to 240°
Wind speed 8 mph
Visibility 2.5 mi.
Present weather mist
Sky condition
Ceiling 300 ft. broken clouds
Cloud layer broken clouds 300 ft.
Cloud layer broken clouds 400 ft.
Cloud layer overcast 500 ft.
Temperature 63°F
Dewpoint 61°F
Altimeter 30.00 in.Hg
Derived measurements
Relative humidity 94%
Density altitude 448 ft.
Remarks
Fully automated report.
METAR EHWO 190855Z AUTO 21007KT 160V240 4100 BR BKN003 BKN004 OVC005 17/16 Q1016 YLO

Settings

Location code

InnerDrive.Weather 4.0.6770.0 Release CLR 4.0.30319.42000
Copyright ©2018 Inner Drive Technology. All rights reserved. Portions Copyright ©1986-2018 David Braverman.

Find weather

Site navigation


Skip Navigation Links

Place info

Page info

PayPal - The safer, easier way to pay online!

Return home.

Copyright ©2021 Inner Drive Technology. Purveyors of fine, hand-crafted computer software. Page printed 2021-10-19T09:03:32 UTC.